Time;durP1;ratioP1;P1;durP2;ratioP2;P2;SDS_P1;SDS_P2;PMS_P1;PMS_P2;Temp;Humidity;BMP_temperature;BMP_pressure;BME280_temperature;BME280_humidity;BME280_pressure;Samples;Min_cycle;Max_cycle;Signal;HPM_P1;HPM_P2
2021/10/28 00:14:21;;;;;;;31.73;19.70;;;9.50;99.90;;;;;;5017922;28;20141;-66
2021/10/28 00:16:49;;;;;;;30.27;20.67;;;9.50;99.90;;;;;;5021985;28;20046;-66
2021/10/28 00:19:16;;;;;;;32.17;20.67;;;9.50;99.90;;;;;;5009368;28;20508;-66
2021/10/28 00:21:43;;;;;;;43.42;22.25;;;9.50;99.90;;;;;;5024162;28;20393;-66
2021/10/28 00:24:11;;;;;;;36.75;20.70;;;9.50;99.90;;;;;;5012466;28;20095;-66
2021/10/28 00:26:42;;;;;;;36.00;20.90;;;9.50;99.90;;;;;;5018983;28;20046;-66
2021/10/28 00:29:11;;;;;;;34.95;20.88;;;9.50;99.90;;;;;;5013967;28;20505;-66
2021/10/28 00:31:38;;;;;;;40.03;21.88;;;9.50;99.90;;;;;;5016887;28;20045;-66
2021/10/28 00:34:07;;;;;;;28.63;19.58;;;9.50;99.90;;;;;;5013961;28;20124;-66
2021/10/28 00:36:34;;;;;;;34.28;21.73;;;9.40;99.90;;;;;;5024188;28;20446;-66
2021/10/28 00:39:00;;;;;;;41.88;21.40;;;9.40;99.90;;;;;;5012092;28;20117;-66
2021/10/28 00:41:26;;;;;;;46.33;22.45;;;9.40;99.90;;;;;;5015657;28;20272;-66
2021/10/28 00:43:58;;;;;;;43.05;22.38;;;9.50;99.90;;;;;;5016631;28;20037;-66
2021/10/28 00:46:27;;;;;;;35.55;21.45;;;9.50;99.90;;;;;;5021660;28;20095;-66
2021/10/28 00:48:52;;;;;;;31.60;19.73;;;9.40;99.90;;;;;;5012065;28;20402;-66
2021/10/28 00:51:20;;;;;;;34.58;20.70;;;9.50;99.90;;;;;;5018324;28;20060;-66
2021/10/28 00:53:46;;;;;;;41.20;22.38;;;9.50;99.90;;;;;;5030650;28;20069;-66
2021/10/28 00:56:12;;;;;;;37.70;21.77;;;9.50;99.90;;;;;;5011397;28;20061;-66
2021/10/28 00:58:39;;;;;;;34.25;22.67;;;9.50;99.90;;;;;;5018994;28;20512;-66
2021/10/28 01:01:06;;;;;;;32.17;21.33;;;9.40;99.90;;;;;;5012241;28;20076;-65
2021/10/28 01:03:36;;;;;;;34.08;20.92;;;9.50;99.90;;;;;;5017412;28;20532;-65
2021/10/28 01:06:03;;;;;;;45.83;23.25;;;9.50;99.90;;;;;;5017037;28;20068;-66
2021/10/28 01:08:30;;;;;;;37.50;21.60;;;9.50;99.90;;;;;;5024757;28;20037;-66
2021/10/28 01:10:56;;;;;;;35.38;21.52;;;9.40;99.90;;;;;;5014932;28;20095;-66
2021/10/28 01:13:23;;;;;;;33.63;20.85;;;9.40;99.90;;;;;;5022006;28;20039;-65
2021/10/28 01:15:49;;;;;;;39.08;21.92;;;9.50;99.90;;;;;;5015647;28;20038;-66
2021/10/28 01:18:16;;;;;;;36.72;20.95;;;9.50;99.90;;;;;;5020085;28;20037;-66
2021/10/28 01:20:49;;;;;;;29.88;20.38;;;9.40;99.90;;;;;;5014446;28;20496;-66
2021/10/28 01:23:17;;;;;;;30.50;20.20;;;9.50;99.90;;;;;;5021032;28;20057;-66
2021/10/28 01:25:51;;;;;;;32.10;21.35;;;9.50;99.90;;;;;;5020287;28;20457;-65
2021/10/28 01:28:17;;;;;;;35.63;21.15;;;9.40;99.90;;;;;;5023275;28;20478;-65
2021/10/28 01:30:48;;;;;;;34.42;21.60;;;9.40;99.90;;;;;;5020674;28;20042;-66
2021/10/28 01:33:13;;;;;;;45.28;22.35;;;9.40;99.90;;;;;;5026654;28;20045;-65
2021/10/28 01:35:39;;;;;;;26.63;18.70;;;9.40;99.90;;;;;;5021123;28;20045;-65
2021/10/28 01:38:05;;;;;;;38.17;21.05;;;9.40;99.90;;;;;;5018776;28;20033;-65
2021/10/28 01:40:30;;;;;;;32.28;19.90;;;9.40;99.90;;;;;;5024134;28;20103;-65
2021/10/28 01:42:57;;;;;;;34.75;19.90;;;9.30;99.90;;;;;;5019898;28;20325;-65
2021/10/28 01:45:23;;;;;;;35.35;20.08;;;9.30;99.90;;;;;;5024624;28;20044;-65
2021/10/28 01:47:48;;;;;;;37.15;21.35;;;9.30;99.90;;;;;;5017097;28;20393;-65
2021/10/28 01:50:14;;;;;;;34.03;20.50;;;9.20;99.90;;;;;;5025455;28;20045;-65
2021/10/28 01:52:40;;;;;;;31.20;20.35;;;9.20;99.90;;;;;;5017935;28;20069;-65
2021/10/28 01:55:09;;;;;;;34.75;19.98;;;9.30;99.90;;;;;;5019418;28;20380;-65
2021/10/28 01:57:35;;;;;;;31.33;21.40;;;9.30;99.90;;;;;;5013509;28;20341;-65
2021/10/28 02:00:02;;;;;;;33.85;21.55;;;9.20;99.90;;;;;;5017397;28;20374;-65
2021/10/28 02:02:29;;;;;;;32.63;20.95;;;9.20;99.90;;;;;;5030010;28;20149;-66
2021/10/28 02:04:55;;;;;;;29.65;19.58;;;9.20;99.90;;;;;;5026099;28;20050;-65
2021/10/28 02:07:20;;;;;;;31.42;19.48;;;9.20;99.90;;;;;;5016651;28;20079;-65
2021/10/28 02:09:46;;;;;;;26.40;19.77;;;9.30;99.90;;;;;;5017151;28;20041;-65
2021/10/28 02:12:11;;;;;;;38.05;21.13;;;9.20;99.90;;;;;;5012825;28;20054;-65
2021/10/28 02:14:37;;;;;;;33.30;19.70;;;9.30;99.90;;;;;;5025972;28;20111;-65
2021/10/28 02:17:04;;;;;;;27.33;20.25;;;9.30;99.90;;;;;;5020652;28;20207;-65
2021/10/28 02:19:29;;;;;;;36.90;20.98;;;9.20;99.90;;;;;;5032725;28;20045;-65
2021/10/28 02:21:55;;;;;;;45.03;20.83;;;9.20;99.90;;;;;;5017819;28;20087;-65
2021/10/28 02:24:21;;;;;;;30.13;19.10;;;9.20;99.90;;;;;;5017892;28;20500;-65
2021/10/28 02:26:46;;;;;;;33.92;19.25;;;9.20;99.90;;;;;;5019648;28;20034;-65
2021/10/28 02:29:12;;;;;;;29.17;18.88;;;9.10;99.90;;;;;;5017848;28;20128;-65
2021/10/28 02:31:43;;;;;;;41.40;20.63;;;9.10;99.90;;;;;;5018582;28;20052;-65
2021/10/28 02:34:09;;;;;;;34.70;21.40;;;9.10;99.90;;;;;;5016408;28;20516;-66
2021/10/28 02:36:35;;;;;;;34.60;21.38;;;9.10;99.90;;;;;;5022380;28;20501;-65
2021/10/28 02:39:01;;;;;;;36.67;20.27;;;9.10;99.90;;;;;;5018852;28;20029;-65
2021/10/28 02:41:27;;;;;;;35.92;20.67;;;9.10;99.90;;;;;;5022898;28;20037;-65
2021/10/28 02:43:52;;;;;;;28.40;18.95;;;9.10;99.90;;;;;;5014766;28;20041;-66
2021/10/28 02:46:18;;;;;;;38.33;21.15;;;9.10;99.90;;;;;;5024806;28;20377;-66
2021/10/28 02:48:44;;;;;;;31.13;20.58;;;9.10;99.90;;;;;;5017944;28;20108;-65
2021/10/28 02:51:10;;;;;;;31.23;20.70;;;9.10;99.90;;;;;;5023182;28;20053;-65
2021/10/28 02:53:35;;;;;;;25.95;18.77;;;9.10;99.90;;;;;;5018955;28;20037;-65
2021/10/28 02:56:01;;;;;;;28.30;19.02;;;9.10;99.90;;;;;;5012412;28;20073;-65
2021/10/28 02:58:26;;;;;;;26.30;18.50;;;9.10;99.90;;;;;;5021045;28;20056;-65
2021/10/28 03:00:52;;;;;;;27.95;17.67;;;9.10;99.90;;;;;;5016495;28;20038;-65
2021/10/28 03:03:18;;;;;;;21.58;18.25;;;9.00;99.90;;;;;;5015389;28;20216;-66
2021/10/28 03:05:44;;;;;;;25.17;17.08;;;9.10;99.90;;;;;;5013775;28;20037;-66
2021/10/28 03:08:09;;;;;;;25.42;17.50;;;9.00;99.90;;;;;;5023297;28;20069;-65
2021/10/28 03:10:36;;;;;;;32.83;19.70;;;9.10;99.90;;;;;;5014331;28;20044;-65
2021/10/28 03:13:01;;;;;;;26.52;17.40;;;8.90;99.90;;;;;;5021520;28;20450;-65
2021/10/28 03:15:32;;;;;;;29.83;18.15;;;9.00;99.90;;;;;;5015022;28;20049;-66
2021/10/28 03:25:35;;;;;;;27.90;19.00;;;8.90;99.90;;;;;;4988570;28;20046;-66
2021/10/28 03:26:35;;;;;;;23.45;16.35;;;8.90;99.90;;;;;;5007936;28;20464;-66
2021/10/28 03:29:00;;;;;;;27.88;17.55;;;8.80;99.90;;;;;;5018227;28;20049;-66
2021/10/28 03:31:26;;;;;;;27.48;18.58;;;8.80;99.90;;;;;;5015440;28;20049;-65
2021/10/28 03:33:52;;;;;;;31.85;18.88;;;8.90;99.90;;;;;;5021089;28;20042;-65
2021/10/28 03:36:46;;;;;;;30.70;18.70;;;8.80;99.90;;;;;;5016883;28;20486;-65
2021/10/28 03:39:37;;;;;;;26.40;16.77;;;8.80;99.90;;;;;;5023762;28;20378;-65
2021/10/28 03:47:36;;;;;;;22.48;16.10;;;8.80;99.90;;;;;;5016475;28;20123;-65
2021/10/28 04:19:54;;;;;;;23.48;16.08;;;8.70;99.90;;;;;;5016489;28;20465;-65
2021/10/28 04:28:53;;;;;;;22.92;15.82;;;8.70;99.90;;;;;;5015591;28;20045;-65
2021/10/28 04:30:37;;;;;;;25.73;16.88;;;8.70;99.90;;;;;;5014767;28;20050;-65
2021/10/28 04:33:03;;;;;;;20.30;16.83;;;8.70;99.90;;;;;;5014783;28;20041;-65
2021/10/28 04:35:29;;;;;;;25.90;18.33;;;8.70;99.90;;;;;;5005403;28;20057;-65
2021/10/28 04:37:54;;;;;;;24.08;16.70;;;8.70;99.90;;;;;;5021452;28;20059;-65
2021/10/28 04:40:20;;;;;;;23.27;14.98;;;8.70;99.90;;;;;;5025025;28;20068;-65
2021/10/28 04:42:46;;;;;;;25.42;16.98;;;8.70;99.90;;;;;;5018102;28;20108;-65
2021/10/28 04:45:12;;;;;;;23.85;16.48;;;8.60;99.90;;;;;;5018938;28;20079;-65
2021/10/28 04:47:38;;;;;;;24.13;15.52;;;8.60;99.90;;;;;;5022470;28;20045;-65
2021/10/28 04:50:06;;;;;;;23.67;16.23;;;8.60;99.90;;;;;;5020034;28;20030;-66
2021/10/28 04:52:32;;;;;;;23.27;15.82;;;8.50;99.90;;;;;;5025307;28;20618;-66
2021/10/28 04:54:57;;;;;;;29.65;18.27;;;8.50;99.90;;;;;;5020776;28;20065;-66
2021/10/28 04:57:23;;;;;;;25.92;18.08;;;8.50;99.90;;;;;;5022484;28;20126;-66
2021/10/28 04:59:49;;;;;;;22.13;16.88;;;8.50;99.90;;;;;;5019640;28;20473;-66
2021/10/28 05:02:14;;;;;;;24.67;16.90;;;8.40;99.90;;;;;;5024031;28;20477;-64
2021/10/28 05:04:40;;;;;;;22.05;16.75;;;8.40;99.90;;;;;;5014826;28;20049;-66
2021/10/28 05:07:06;;;;;;;24.02;17.20;;;8.40;99.90;;;;;;5027625;28;20124;-66
2021/10/28 05:09:32;;;;;;;23.27;18.08;;;8.20;99.90;;;;;;5014168;28;20095;-66
2021/10/28 05:12:00;;;;;;;27.38;18.17;;;8.40;99.90;;;;;;5001741;28;20061;-64
2021/10/28 05:14:26;;;;;;;23.92;18.27;;;8.40;99.90;;;;;;5023866;28;20049;-64
2021/10/28 05:16:56;;;;;;;28.40;18.25;;;8.40;99.90;;;;;;5025850;28;20045;-64
2021/10/28 05:19:23;;;;;;;27.83;19.73;;;8.40;99.90;;;;;;5015101;28;20034;-64
2021/10/28 05:21:48;;;;;;;27.90;19.52;;;8.40;99.90;;;;;;5022341;28;20045;-64
2021/10/28 05:24:14;;;;;;;31.33;20.80;;;8.40;99.90;;;;;;5025933;28;20041;-64
2021/10/28 05:26:40;;;;;;;27.27;20.23;;;8.40;99.90;;;;;;5015011;28;20049;-65
2021/10/28 05:29:05;;;;;;;27.27;19.35;;;8.40;99.90;;;;;;5019135;28;20441;-64
2021/10/28 05:31:31;;;;;;;29.17;19.88;;;8.30;99.90;;;;;;5013722;28;20489;-65
2021/10/28 05:33:57;;;;;;;30.13;20.27;;;8.40;99.90;;;;;;5020203;28;20371;-65
2021/10/28 05:36:23;;;;;;;38.75;20.63;;;8.30;99.90;;;;;;5017022;28;20045;-65
2021/10/28 05:38:48;;;;;;;31.17;20.13;;;8.30;99.90;;;;;;5022208;28;20034;-65
2021/10/28 05:41:14;;;;;;;31.05;20.02;;;8.30;99.90;;;;;;5014732;28;20099;-65
2021/10/28 05:43:40;;;;;;;31.98;20.88;;;8.30;99.90;;;;;;5020602;28;20494;-65
2021/10/28 05:46:06;;;;;;;31.10;19.92;;;8.30;99.90;;;;;;5021455;28;20037;-65
2021/10/28 05:48:32;;;;;;;33.35;21.52;;;8.20;99.90;;;;;;5015725;28;20522;-65
2021/10/28 05:50:59;;;;;;;31.35;22.58;;;8.20;99.90;;;;;;5019734;28;20056;-65
2021/10/28 05:53:25;;;;;;;31.63;21.50;;;8.30;99.90;;;;;;5021752;28;20501;-65
2021/10/28 05:55:51;;;;;;;32.22;20.70;;;8.20;99.90;;;;;;5013212;28;20038;-65
2021/10/28 05:58:17;;;;;;;33.95;21.48;;;8.20;99.90;;;;;;5026494;28;20065;-65
2021/10/28 06:00:43;;;;;;;33.25;22.08;;;8.20;99.90;;;;;;5024401;28;20497;-65
2021/10/28 06:03:09;;;;;;;34.20;21.83;;;8.10;99.90;;;;;;5012201;28;20041;-65
2021/10/28 06:05:34;;;;;;;34.13;23.13;;;8.10;99.90;;;;;;5023662;28;20052;-65
2021/10/28 06:08:00;;;;;;;37.38;23.15;;;8.10;99.90;;;;;;5017378;28;20045;-65
2021/10/28 06:10:26;;;;;;;34.63;22.85;;;8.10;99.90;;;;;;5024478;28;20486;-65
2021/10/28 06:12:54;;;;;;;39.40;22.92;;;8.10;99.90;;;;;;5017448;28;20050;-65
2021/10/28 06:15:21;;;;;;;32.25;21.23;;;8.10;99.90;;;;;;5022266;28;20053;-64
2021/10/28 06:17:54;;;;;;;36.65;22.95;;;8.10;99.90;;;;;;5016443;28;20490;-65
2021/10/28 06:20:21;;;;;;;40.08;23.58;;;8.10;99.90;;;;;;5021763;28;20124;-65
2021/10/28 06:22:47;;;;;;;37.22;21.95;;;8.10;99.90;;;;;;5011487;28;20037;-65
2021/10/28 06:25:13;;;;;;;35.90;21.48;;;8.10;99.90;;;;;;5018420;28;20432;-65
2021/10/28 06:27:39;;;;;;;35.75;22.88;;;8.10;99.90;;;;;;5010094;28;20041;-65
2021/10/28 06:30:06;;;;;;;34.92;22.63;;;8.10;99.90;;;;;;5016539;28;20088;-65
2021/10/28 06:32:31;;;;;;;35.40;22.85;;;8.10;99.90;;;;;;5020262;28;20045;-65
2021/10/28 06:34:59;;;;;;;36.22;22.92;;;8.10;99.90;;;;;;5018411;28;20029;-65
2021/10/28 06:37:27;;;;;;;37.35;22.30;;;8.10;99.90;;;;;;5010230;28;20049;-65
2021/10/28 06:39:52;;;;;;;29.42;19.50;;;8.10;99.90;;;;;;5016799;28;20041;-65
2021/10/28 06:42:18;;;;;;;38.45;22.15;;;8.10;99.90;;;;;;5022723;28;20124;-65
2021/10/28 06:44:44;;;;;;;36.00;22.55;;;8.10;99.90;;;;;;5010027;28;20034;-65
2021/10/28 06:47:10;;;;;;;36.13;23.13;;;8.10;99.90;;;;;;5018520;28;20049;-64
2021/10/28 06:49:39;;;;;;;34.88;21.95;;;8.20;99.90;;;;;;5011563;28;20049;-64
2021/10/28 06:52:08;;;;;;;37.95;21.77;;;8.20;99.90;;;;;;5019502;28;20083;-65
2021/10/28 06:54:38;;;;;;;34.80;21.02;;;8.20;99.90;;;;;;5011877;28;20080;-65
2021/10/28 07:04:48;;;;;;;36.67;22.00;;;8.20;99.90;;;;;;5018320;28;20050;-65
2021/10/28 07:07:14;;;;;;;32.45;20.65;;;8.30;99.90;;;;;;5020373;28;20128;-65
2021/10/28 07:10:24;;;;;;;34.38;20.90;;;8.30;99.90;;;;;;5016174;28;20153;-65
2021/10/28 07:15:17;;;;;;;29.15;19.65;;;8.30;99.90;;;;;;5013789;28;20093;-65
2021/10/28 07:18:27;;;;;;;31.35;20.38;;;8.40;99.90;;;;;;5015475;28;20045;-65
2021/10/28 07:28:20;;;;;;;25.52;18.75;;;9.50;99.90;;;;;;5023507;28;20046;-65
2021/10/28 07:31:18;;;;;;;24.08;18.30;;;9.60;99.90;;;;;;5013947;28;20046;-65
2021/10/28 07:39:02;;;;;;;21.80;16.75;;;10.00;99.90;;;;;;5016776;28;20046;-65
2021/10/28 08:19:47;;;;;;;16.15;13.43;;;15.00;99.90;;;;;;5024708;28;20516;-65
2021/10/28 08:30:19;;;;;;;15.60;13.07;;;15.80;99.90;;;;;;5014712;28;20081;-65
2021/10/28 08:32:45;;;;;;;15.35;12.85;;;16.20;99.90;;;;;;5009187;28;20440;-65
2021/10/28 08:35:11;;;;;;;15.65;13.43;;;16.40;99.90;;;;;;5016880;28;20045;-66
2021/10/28 08:37:46;;;;;;;17.05;12.95;;;16.60;99.90;;;;;;5008675;28;20069;-65
2021/10/28 08:40:16;;;;;;;15.50;13.60;;;16.90;99.90;;;;;;5023704;28;20034;-65
2021/10/28 08:42:43;;;;;;;13.95;12.50;;;17.00;99.90;;;;;;5013824;28;20038;-65
2021/10/28 08:45:14;;;;;;;15.15;12.65;;;17.20;99.90;;;;;;5013222;28;20077;-65
2021/10/28 08:47:46;;;;;;;16.05;12.40;;;17.20;99.90;;;;;;5015399;28;20052;-65
2021/10/28 08:50:20;;;;;;;14.93;12.55;;;17.40;99.90;;;;;;5022089;28;20049;-65
2021/10/28 08:53:10;;;;;;;13.75;12.13;;;17.50;99.90;;;;;;5016532;28;20041;-65
2021/10/28 08:55:39;;;;;;;13.68;11.60;;;17.60;99.40;;;;;;5028954;28;20502;-65
2021/10/28 09:26:51;;;;;;;13.52;10.90;;;19.10;90.60;;;;;;5017954;28;20064;-66
2021/10/28 09:29:33;;;;;;;12.73;11.43;;;19.40;90.60;;;;;;5011631;28;20034;-66
2021/10/28 09:51:17;;;;;;;11.23;10.13;;;19.80;85.10;;;;;;5000219;28;20102;-65
2021/10/28 09:59:46;;;;;;;10.40;9.40;;;19.90;83.20;;;;;;5018259;28;20053;-65
2021/10/28 10:02:53;;;;;;;10.18;9.00;;;19.50;84.80;;;;;;5017906;28;20049;-65
2021/10/28 10:05:21;;;;;;;10.48;9.38;;;19.10;84.00;;;;;;5022199;28;20057;-65
2021/10/28 10:07:48;;;;;;;12.18;10.10;;;18.60;86.30;;;;;;5018441;28;20051;-65
2021/10/28 10:10:18;;;;;;;11.73;9.80;;;18.20;87.20;;;;;;5024587;28;20099;-65
2021/10/28 10:12:45;;;;;;;11.90;9.43;;;18.00;87.30;;;;;;5013926;28;20046;-65
2021/10/28 10:15:11;;;;;;;10.32;9.25;;;18.00;87.20;;;;;;5018351;28;20485;-65
2021/10/28 10:17:38;;;;;;;10.95;9.07;;;18.20;86.50;;;;;;5012333;28;20067;-65
2021/10/28 10:20:12;;;;;;;10.93;9.75;;;18.50;86.40;;;;;;5016959;28;20049;-65
2021/10/28 10:25:40;;;;;;;12.32;8.50;;;19.30;85.50;;;;;;5023070;28;20117;-64
2021/10/28 10:28:54;;;;;;;9.75;8.75;;;19.70;82.70;;;;;;5014492;28;20049;-65
2021/10/28 11:05:53;;;;;;;8.52;6.90;;;22.70;70.50;;;;;;5017226;28;20297;-66
2021/10/28 11:26:21;;;;;;;8.68;7.53;;;18.50;79.30;;;;;;5023853;28;20072;-65
2021/10/28 12:27:51;;;;;;;7.90;6.30;;;15.20;93.10;;;;;;5017742;28;20401;-65
2021/10/28 12:45:50;;;;;;;8.10;6.60;;;15.30;94.60;;;;;;5016224;28;20052;-65
2021/10/28 12:48:49;;;;;;;9.20;6.65;;;15.30;94.40;;;;;;5012725;28;20038;-65
2021/10/28 12:54:10;;;;;;;9.88;6.82;;;15.20;94.10;;;;;;5007785;28;20498;-65
2021/10/28 13:05:23;;;;;;;;;;;15.20;94.60;;;;;;5018527;28;20514;-65
2021/10/28 13:51:36;;;;;;;8.13;7.13;;;15.30;95.60;;;;;;5021007;28;20057;-65
2021/10/28 14:23:52;;;;;;;9.43;7.43;;;15.00;97.20;;;;;;5028391;28;20049;-65
2021/10/28 15:29:06;;;;;;;10.32;6.57;;;14.30;99.00;;;;;;5015431;28;20048;-65
2021/10/28 15:34:26;;;;;;;10.40;6.53;;;14.10;99.40;;;;;;5013726;28;20041;-65
2021/10/28 16:00:30;;;;;;;10.02;6.57;;;13.50;99.90;;;;;;5015438;28;20077;-65
2021/10/28 16:21:54;;;;;;;11.45;7.32;;;12.70;99.90;;;;;;5014403;28;20483;-65
2021/10/28 16:24:23;;;;;;;12.57;7.68;;;12.60;99.90;;;;;;5015578;28;20048;-65
2021/10/28 16:26:49;;;;;;;11.90;7.72;;;12.50;99.90;;;;;;5009205;28;20117;-65
2021/10/28 16:29:15;;;;;;;11.48;7.55;;;12.50;99.90;;;;;;5017295;28;20077;-65
2021/10/28 16:31:42;;;;;;;14.63;7.63;;;12.40;99.90;;;;;;5013556;28;20509;-65
2021/10/28 16:34:09;;;;;;;13.45;7.72;;;12.30;99.90;;;;;;5023863;28;20080;-65
2021/10/28 16:36:34;;;;;;;11.27;7.65;;;12.30;99.90;;;;;;5014954;28;20038;-65
2021/10/28 16:39:04;;;;;;;10.40;7.97;;;12.20;99.90;;;;;;5026605;28;20109;-65
2021/10/28 16:41:30;;;;;;;9.48;7.53;;;12.10;99.90;;;;;;5015765;28;20046;-65
2021/10/28 16:43:56;;;;;;;11.85;7.47;;;12.00;99.90;;;;;;5018623;28;20490;-65
2021/10/28 16:46:21;;;;;;;10.75;7.78;;;12.00;99.90;;;;;;5021941;28;20530;-65
2021/10/28 16:48:49;;;;;;;15.82;9.00;;;11.90;99.90;;;;;;5025027;28;20063;-65
2021/10/28 16:51:15;;;;;;;12.98;8.63;;;11.80;99.90;;;;;;5014013;28;20125;-65
2021/10/28 16:53:43;;;;;;;13.73;10.27;;;11.80;99.90;;;;;;5023227;28;20065;-65
2021/10/28 16:56:10;;;;;;;12.00;8.95;;;11.70;99.90;;;;;;5002682;28;20511;-65
2021/10/28 16:58:35;;;;;;;15.27;9.45;;;11.70;99.90;;;;;;5026832;28;20041;-65
2021/10/28 17:01:01;;;;;;;13.65;9.60;;;11.60;99.90;;;;;;5021887;28;20136;-65
2021/10/28 17:03:27;;;;;;;15.60;9.35;;;11.60;99.90;;;;;;5016229;28;20049;-65
2021/10/28 17:05:53;;;;;;;15.38;8.82;;;11.50;99.90;;;;;;5021391;28;20041;-65
2021/10/28 17:08:19;;;;;;;12.18;8.32;;;11.40;99.90;;;;;;5019053;28;20347;-65
2021/10/28 17:10:45;;;;;;;12.63;8.95;;;11.40;99.90;;;;;;5020411;28;20046;-65
2021/10/28 17:13:12;;;;;;;11.82;8.93;;;11.30;99.90;;;;;;5020047;28;20044;-65
2021/10/28 17:15:37;;;;;;;10.25;8.43;;;11.30;99.90;;;;;;5020890;28;20044;-65
2021/10/28 17:18:03;;;;;;;11.65;8.45;;;11.20;99.90;;;;;;5013866;28;20486;-65
2021/10/28 17:20:34;;;;;;;11.70;9.13;;;11.30;99.90;;;;;;5024551;28;20034;-67
2021/10/28 17:23:01;;;;;;;13.75;9.10;;;11.20;99.90;;;;;;5011461;28;20038;-65
2021/10/28 17:25:27;;;;;;;13.50;9.02;;;11.20;99.90;;;;;;5022167;28;20471;-65
2021/10/28 17:27:53;;;;;;;12.35;8.70;;;11.30;99.90;;;;;;5024960;28;20037;-65
2021/10/28 17:30:19;;;;;;;14.23;10.65;;;11.30;99.90;;;;;;5021908;28;20383;-65
2021/10/28 17:32:46;;;;;;;10.73;8.60;;;11.30;99.90;;;;;;5012042;28;20200;-65
2021/10/28 17:35:13;;;;;;;10.43;8.55;;;11.30;99.90;;;;;;5023205;28;20045;-65
2021/10/28 17:37:40;;;;;;;10.57;8.75;;;11.30;99.90;;;;;;5023930;28;20049;-65
2021/10/28 17:40:06;;;;;;;12.95;9.30;;;11.40;99.90;;;;;;5020680;28;20065;-65
2021/10/28 17:42:33;;;;;;;12.77;9.80;;;11.40;99.90;;;;;;5025634;28;20044;-65
2021/10/28 17:45:01;;;;;;;13.88;9.70;;;11.40;99.90;;;;;;5013628;28;20050;-65
2021/10/28 17:47:27;;;;;;;11.80;9.20;;;11.40;99.90;;;;;;5026484;28;20092;-65
2021/10/28 17:49:55;;;;;;;11.48;9.23;;;11.30;99.90;;;;;;5020090;28;20464;-65
2021/10/28 17:52:22;;;;;;;13.27;10.20;;;11.30;99.90;;;;;;5023110;28;20052;-65
2021/10/28 17:54:48;;;;;;;12.75;9.00;;;11.30;99.90;;;;;;5021887;28;20413;-65
2021/10/28 17:57:14;;;;;;;14.25;10.25;;;11.30;99.90;;;;;;5022109;28;20042;-65
2021/10/28 17:59:45;;;;;;;11.27;9.07;;;11.30;99.90;;;;;;5015542;28;20042;-65
2021/10/28 18:02:11;;;;;;;14.65;10.38;;;11.30;99.90;;;;;;5027379;28;20408;-64
2021/10/28 18:04:37;;;;;;;13.32;9.13;;;11.40;99.90;;;;;;5010732;28;20052;-64
2021/10/28 18:07:07;;;;;;;13.05;9.80;;;11.40;99.90;;;;;;5023043;28;20085;-64
2021/10/28 18:09:43;;;;;;;16.05;9.32;;;11.30;99.90;;;;;;5014729;28;20072;-64
2021/10/28 18:12:18;;;;;;;15.75;10.38;;;11.30;99.90;;;;;;5020089;28;20171;-64
2021/10/28 18:14:49;;;;;;;13.90;10.25;;;11.30;99.90;;;;;;5014962;28;20481;-64
2021/10/28 18:17:17;;;;;;;14.02;10.05;;;11.30;99.90;;;;;;5017163;28;20044;-64
2021/10/28 18:19:43;;;;;;;11.73;10.30;;;11.20;99.90;;;;;;5013885;28;20033;-64
2021/10/28 18:22:09;;;;;;;11.43;9.70;;;11.30;99.90;;;;;;5021953;28;20049;-64
2021/10/28 18:24:35;;;;;;;12.25;9.73;;;11.30;99.90;;;;;;5015215;28;20032;-65
2021/10/28 18:27:02;;;;;;;15.43;10.32;;;11.30;99.90;;;;;;5018734;28;20099;-65
2021/10/28 18:29:28;;;;;;;14.43;9.90;;;11.20;99.90;;;;;;5020163;28;20041;-64
2021/10/28 18:31:53;;;;;;;13.23;10.00;;;11.30;99.90;;;;;;5018811;28;20095;-65
2021/10/28 18:34:19;;;;;;;12.38;9.98;;;11.20;99.90;;;;;;5021726;28;20124;-65
2021/10/28 18:36:45;;;;;;;13.00;9.77;;;11.20;99.90;;;;;;5014624;28;20045;-65
2021/10/28 18:39:14;;;;;;;12.10;8.98;;;11.10;99.90;;;;;;5019491;28;20128;-65
2021/10/28 18:41:44;;;;;;;12.90;9.15;;;11.10;99.90;;;;;;5013518;28;20042;-65
2021/10/28 18:44:10;;;;;;;11.60;9.43;;;11.10;99.90;;;;;;5017555;28;20037;-65
2021/10/28 18:46:37;;;;;;;12.10;9.27;;;11.00;99.90;;;;;;5015661;28;20081;-65
2021/10/28 18:49:03;;;;;;;11.32;8.93;;;11.00;99.90;;;;;;5020159;28;20109;-65
2021/10/28 18:51:31;;;;;;;12.07;9.02;;;10.90;99.90;;;;;;5015576;28;20042;-65
2021/10/28 18:53:57;;;;;;;13.43;9.68;;;10.90;99.90;;;;;;5023820;28;20033;-65
2021/10/28 18:56:22;;;;;;;12.18;10.30;;;10.80;99.90;;;;;;5015940;28;20041;-65
2021/10/28 18:58:49;;;;;;;13.32;9.18;;;10.80;99.90;;;;;;5017182;28;20065;-64
2021/10/28 19:01:16;;;;;;;12.88;9.10;;;10.80;99.90;;;;;;5015311;28;20050;-65
2021/10/28 19:03:44;;;;;;;12.63;9.63;;;10.80;99.90;;;;;;5016449;28;20049;-65
2021/10/28 19:06:12;;;;;;;12.10;10.82;;;10.80;99.90;;;;;;5034391;28;20050;-64
2021/10/28 19:08:40;;;;;;;15.15;10.45;;;10.70;99.90;;;;;;5023688;28;20037;-64
2021/10/28 19:11:09;;;;;;;12.90;10.75;;;10.70;99.90;;;;;;5021033;28;20506;-65
2021/10/28 19:13:40;;;;;;;15.98;10.35;;;10.70;99.90;;;;;;5013255;28;20041;-64
2021/10/28 19:16:05;;;;;;;13.63;11.00;;;10.80;99.90;;;;;;5019038;28;20033;-65
2021/10/28 19:18:31;;;;;;;18.88;11.65;;;10.80;99.90;;;;;;5010729;28;20099;-64
2021/10/28 19:20:58;;;;;;;15.88;11.07;;;10.80;99.90;;;;;;5017034;28;20073;-64
2021/10/28 19:23:24;;;;;;;16.58;11.48;;;10.90;99.90;;;;;;5014233;28;20079;-64
2021/10/28 19:25:50;;;;;;;13.90;12.30;;;10.90;99.90;;;;;;5019108;28;20112;-65
2021/10/28 19:28:16;;;;;;;14.30;11.27;;;11.00;99.90;;;;;;5010044;28;20557;-65
2021/10/28 19:31:02;;;;;;;14.98;12.48;;;11.10;99.90;;;;;;5017094;28;20034;-65
2021/10/28 19:33:39;;;;;;;16.42;12.00;;;11.10;99.90;;;;;;5017943;28;20434;-65
2021/10/28 19:36:09;;;;;;;14.27;12.48;;;11.10;99.90;;;;;;5020602;28;20034;-65
2021/10/28 19:46:42;;;;;;;14.82;11.90;;;11.10;99.90;;;;;;5020188;28;20424;-64
2021/10/28 19:49:08;;;;;;;15.45;12.10;;;11.10;99.90;;;;;;5011754;28;20132;-65
2021/10/28 19:51:35;;;;;;;14.10;12.05;;;11.00;99.90;;;;;;5021475;28;20048;-65
2021/10/28 19:54:03;;;;;;;16.75;12.02;;;11.00;99.90;;;;;;5014104;28;20045;-65
2021/10/28 19:56:29;;;;;;;14.70;12.00;;;11.00;99.90;;;;;;5014605;28;20099;-65
2021/10/28 19:59:01;;;;;;;16.75;13.07;;;11.00;99.90;;;;;;5014270;28;20115;-65
2021/10/28 20:01:43;;;;;;;15.65;12.57;;;10.90;99.90;;;;;;5022956;28;20132;-65
2021/10/28 20:20:35;;;;;;;18.08;13.48;;;11.00;99.90;;;;;;5010912;28;20045;-65
2021/10/28 20:23:03;;;;;;;19.85;14.60;;;10.90;99.90;;;;;;5021312;28;20512;-65
2021/10/28 20:25:29;;;;;;;19.00;14.68;;;11.00;99.90;;;;;;5016241;28;20038;-66
2021/10/28 20:28:02;;;;;;;15.75;12.80;;;11.00;99.90;;;;;;5015176;28;20042;-66
2021/10/28 20:30:31;;;;;;;17.60;14.18;;;11.00;99.90;;;;;;5010634;28;20074;-65
2021/10/28 20:32:58;;;;;;;17.83;13.85;;;11.00;99.90;;;;;;5017845;28;20041;-65
2021/10/28 20:37:54;;;;;;;17.00;14.32;;;10.90;99.90;;;;;;5020485;28;20482;-66
2021/10/28 20:40:21;;;;;;;17.50;15.05;;;10.90;99.90;;;;;;5015897;28;20107;-66
2021/10/28 20:42:47;;;;;;;17.73;14.35;;;10.90;99.90;;;;;;5013055;28;20076;-65
2021/10/28 20:45:17;;;;;;;19.35;15.60;;;10.90;99.90;;;;;;5008306;28;20080;-65
2021/10/28 20:47:43;;;;;;;15.82;13.18;;;10.90;99.90;;;;;;5024431;28;20095;-65
2021/10/28 20:50:12;;;;;;;16.10;14.50;;;10.90;99.90;;;;;;5015421;28;20131;-65
2021/10/28 20:52:42;;;;;;;16.70;14.57;;;10.90;99.90;;;;;;5017194;28;20044;-65
2021/10/28 20:55:09;;;;;;;17.67;14.30;;;10.90;99.90;;;;;;5025319;28;20344;-65
2021/10/28 20:57:35;;;;;;;15.93;14.05;;;10.80;99.90;;;;;;5010481;28;20069;-66
2021/10/28 21:00:07;;;;;;;17.35;14.10;;;10.80;99.90;;;;;;5017379;28;20513;-65
2021/10/28 21:02:34;;;;;;;17.33;14.48;;;10.80;99.90;;;;;;5006006;28;20134;-65
2021/10/28 21:05:00;;;;;;;17.27;15.05;;;10.80;99.90;;;;;;5018715;28;20632;-66
2021/10/28 21:07:27;;;;;;;19.35;16.27;;;10.70;99.90;;;;;;5016693;28;20119;-65
2021/10/28 21:09:53;;;;;;;18.30;14.55;;;10.70;99.90;;;;;;5019403;28;20481;-65
2021/10/28 21:12:19;;;;;;;18.55;15.65;;;10.70;99.90;;;;;;5011845;28;20063;-66
2021/10/28 21:14:45;;;;;;;18.08;14.80;;;10.60;99.90;;;;;;5013601;28;20049;-66
2021/10/28 21:17:11;;;;;;;18.30;15.43;;;10.60;99.90;;;;;;5028475;28;20038;-66
2021/10/28 21:19:37;;;;;;;16.38;14.38;;;10.60;99.90;;;;;;5026701;28;20095;-65
2021/10/28 21:22:04;;;;;;;22.02;16.98;;;10.50;99.90;;;;;;5018766;28;20480;-66
2021/10/28 21:24:30;;;;;;;22.45;15.35;;;10.50;99.90;;;;;;5023898;28;20048;-66
2021/10/28 21:26:56;;;;;;;18.98;15.70;;;10.50;99.90;;;;;;5013922;28;20505;-66
2021/10/28 21:29:22;;;;;;;19.42;15.18;;;10.40;99.90;;;;;;5021307;28;20033;-66
2021/10/28 21:31:48;;;;;;;19.98;16.45;;;10.40;99.90;;;;;;5014735;28;20048;-66
2021/10/28 21:34:14;;;;;;;21.60;16.40;;;10.40;99.90;;;;;;5023505;28;20077;-66